createdAt,value
2022-10-14T00:01:25.209Z,15.17
2022-10-14T00:06:31.608Z,15.23
2022-10-14T00:11:36.268Z,14.90
2022-10-14T00:16:40.949Z,15.00
2022-10-14T00:21:46.517Z,14.90
2022-10-14T00:26:49.930Z,16.00
2022-10-14T00:31:53.872Z,16.33
2022-10-14T00:36:56.557Z,15.33
2022-10-14T00:41:59.258Z,15.33
2022-10-14T00:47:01.953Z,16.73
2022-10-14T00:52:11.279Z,15.87
2022-10-14T00:57:16.564Z,16.33
2022-10-14T01:02:19.422Z,16.00
2022-10-14T01:07:34.676Z,15.63
2022-10-14T01:12:50.339Z,15.53
2022-10-14T01:17:55.886Z,14.87
2022-10-14T01:23:10.092Z,14.90
2022-10-14T01:28:31.769Z,14.77
2022-10-14T01:33:44.868Z,14.40
2022-10-14T01:39:02.489Z,13.87
2022-10-14T01:44:10.757Z,14.30
2022-10-14T01:49:27.430Z,14.13
2022-10-14T01:54:39.269Z,12.93
2022-10-14T01:59:42.686Z,13.77
2022-10-14T02:04:45.630Z,13.83
2022-10-14T02:09:53.452Z,13.47
2022-10-14T02:15:20.500Z,13.73
2022-10-14T02:20:35.195Z,14.27
2022-10-14T02:25:42.762Z,13.87
2022-10-14T02:30:49.807Z,14.60
2022-10-14T02:35:54.572Z,13.33
2022-10-14T02:40:58.237Z,14.03
2022-10-14T02:46:03.453Z,13.57
2022-10-14T02:51:06.593Z,14.73
2022-10-14T02:56:09.646Z,13.37
2022-10-14T03:01:12.399Z,13.60
2022-10-14T03:06:15.181Z,13.80
2022-10-14T03:11:18.379Z,12.97
2022-10-14T03:16:21.219Z,14.47
2022-10-14T03:21:24.501Z,14.43
2022-10-14T03:26:27.652Z,14.73
2022-10-14T03:31:30.865Z,13.90
2022-10-14T03:36:53.934Z,14.50
2022-10-14T03:41:57.707Z,14.37
2022-10-14T03:47:08.736Z,17.80
2022-10-14T03:52:13.888Z,18.13
2022-10-14T03:57:21.685Z,17.03
2022-10-14T04:02:28.220Z,14.77
2022-10-14T04:07:33.547Z,14.67
2022-10-14T04:12:36.745Z,14.23
2022-10-14T04:17:44.379Z,14.03
2022-10-14T04:22:50.365Z,13.60
2022-10-14T04:27:54.558Z,13.63
2022-10-14T04:33:02.396Z,13.50
2022-10-14T04:38:05.857Z,13.70
2022-10-14T04:43:08.652Z,13.57
2022-10-14T04:48:16.514Z,14.77
2022-10-14T04:53:23.108Z,15.47
2022-10-14T04:58:43.647Z,14.90
2022-10-14T05:03:47.195Z,14.60
2022-10-14T05:08:52.137Z,15.33
2022-10-14T05:13:55.902Z,14.27
2022-10-14T05:19:00.908Z,16.00
2022-10-14T05:24:04.940Z,16.07
2022-10-14T05:29:10.868Z,13.60
2022-10-14T05:34:15.138Z,15.83
2022-10-14T05:39:17.911Z,14.93
2022-10-14T05:44:21.156Z,15.00
2022-10-14T05:49:25.544Z,14.50
2022-10-14T05:54:31.947Z,15.13
2022-10-14T05:59:35.331Z,16.03
2022-10-14T06:04:41.164Z,15.73
2022-10-14T06:09:44.480Z,15.93
2022-10-14T06:14:47.230Z,15.20
2022-10-14T06:19:50.090Z,15.73
2022-10-14T06:24:52.800Z,14.53
2022-10-14T06:29:55.573Z,15.27
2022-10-14T06:34:58.407Z,14.57
2022-10-14T06:40:01.181Z,14.93
2022-10-14T06:45:04.331Z,16.17
2022-10-14T06:50:07.590Z,16.43
2022-10-14T06:55:10.481Z,15.47
2022-10-14T07:00:13.580Z,15.20
2022-10-14T07:05:16.514Z,15.53
2022-10-14T07:10:19.195Z,14.80
2022-10-14T07:15:22.046Z,13.37
2022-10-14T07:20:24.777Z,13.20
2022-10-14T07:25:27.552Z,12.53
2022-10-14T07:30:30.507Z,12.87
2022-10-14T07:35:33.284Z,12.77
2022-10-14T07:40:36.016Z,11.80
2022-10-14T07:45:44.214Z,12.23
2022-10-14T07:50:50.882Z,12.17
2022-10-14T07:55:56.302Z,12.03
2022-10-14T08:00:59.606Z,11.63
2022-10-14T08:06:04.910Z,10.13
2022-10-14T08:11:09.310Z,10.70
2022-10-14T08:16:23.779Z,9.73
2022-10-14T08:21:28.400Z,8.40
2022-10-14T08:26:35.187Z,8.43
2022-10-14T08:31:38.377Z,8.10
2022-10-14T08:36:41.590Z,8.20
2022-10-14T08:42:02.070Z,8.97
2022-10-14T08:47:10.552Z,9.30
2022-10-14T08:52:39.677Z,10.27
2022-10-14T08:57:52.874Z,9.33
2022-10-14T09:02:57.143Z,10.53
2022-10-14T09:08:00.864Z,9.73
2022-10-14T09:13:35.734Z,9.43
2022-10-14T09:18:53.830Z,10.63
2022-10-14T09:24:18.805Z,10.40
2022-10-14T09:29:59.360Z,11.17
2022-10-14T09:35:03.072Z,11.33
2022-10-14T09:40:22.420Z,12.17
2022-10-14T09:45:28.310Z,11.07
2022-10-14T09:50:35.948Z,11.53
2022-10-14T09:55:52.768Z,10.53
2022-10-14T10:01:01.067Z,10.43
2022-10-14T10:06:09.813Z,9.87
2022-10-14T10:11:13.938Z,10.63
2022-10-14T10:16:31.801Z,9.60
2022-10-14T10:21:36.863Z,10.17
2022-10-14T10:26:39.567Z,9.90
2022-10-14T10:32:14.763Z,8.97
2022-10-14T10:37:39.397Z,8.10
2022-10-14T10:42:58.780Z,8.10
2022-10-14T10:48:14.084Z,6.80
2022-10-14T10:53:29.890Z,5.03
2022-10-14T10:58:55.113Z,4.30
2022-10-14T11:04:16.401Z,4.40
2022-10-14T11:10:21.763Z,4.20
2022-10-14T11:15:32.225Z,3.80
2022-10-14T11:20:55.958Z,3.30
2022-10-14T11:26:20.626Z,3.50
2022-10-14T11:32:07.850Z,3.60
2022-10-14T11:37:23.381Z,3.27
2022-10-14T11:42:55.587Z,3.10
2022-10-14T11:48:12.334Z,2.27
2022-10-14T11:53:35.145Z,2.70
2022-10-14T11:58:41.558Z,2.37
2022-10-14T12:04:10.609Z,2.20
2022-10-14T12:09:33.115Z,2.70
2022-10-14T12:14:50.284Z,2.90
2022-10-14T12:19:53.745Z,2.57
2022-10-14T12:25:03.799Z,2.83
2022-10-14T12:30:32.779Z,2.90
2022-10-14T12:35:50.891Z,2.83
2022-10-14T12:40:55.334Z,2.80
2022-10-14T12:46:15.119Z,2.70
2022-10-14T12:51:23.634Z,2.50
2022-10-14T12:56:31.519Z,2.50
2022-10-14T13:01:36.406Z,2.03
2022-10-14T13:06:42.474Z,2.40
2022-10-14T13:12:06.094Z,2.40
2022-10-14T13:17:29.694Z,2.40
2022-10-14T13:22:39.545Z,2.10
2022-10-14T13:27:49.980Z,2.03
2022-10-14T13:33:04.141Z,2.13
2022-10-14T13:38:18.766Z,1.93
2022-10-14T13:43:35.080Z,2.10
2022-10-14T13:48:46.118Z,2.40
2022-10-14T13:53:53.093Z,2.00
2022-10-14T13:58:56.409Z,2.27
2022-10-14T14:03:59.854Z,2.20
2022-10-14T14:09:06.002Z,2.17
2022-10-14T14:14:38.614Z,2.17
2022-10-14T14:19:46.373Z,2.27
2022-10-14T14:24:49.366Z,2.73
2022-10-14T14:29:53.779Z,2.57
2022-10-14T14:34:57.179Z,2.87
2022-10-14T14:40:05.915Z,2.27
2022-10-14T14:45:15.309Z,2.53
2022-10-14T14:50:30.338Z,3.00
2022-10-14T14:55:54.154Z,2.77
2022-10-14T15:00:57.507Z,2.70
2022-10-14T15:06:02.937Z,2.47
2022-10-14T15:11:06.601Z,2.70
2022-10-14T15:16:09.518Z,2.50
2022-10-14T15:21:16.819Z,3.00
2022-10-14T15:26:25.411Z,2.90
2022-10-14T15:31:28.138Z,2.63
2022-10-14T15:36:33.709Z,2.60
2022-10-14T15:41:40.119Z,2.67
2022-10-14T15:47:03.378Z,2.60
2022-10-14T15:52:07.248Z,2.80
2022-10-14T15:57:12.552Z,2.80
2022-10-14T16:02:23.841Z,3.10
2022-10-14T16:07:27.129Z,3.37
2022-10-14T16:12:30.819Z,3.00
2022-10-14T16:17:36.447Z,3.63
2022-10-14T16:22:39.133Z,3.80
2022-10-14T16:27:42.503Z,5.13
2022-10-14T16:32:45.257Z,3.53
2022-10-14T16:37:48.992Z,3.60
2022-10-14T16:42:52.130Z,3.40
2022-10-14T16:47:55.160Z,3.87
2022-10-14T16:53:16.415Z,4.43
2022-10-14T16:58:19.117Z,4.57
2022-10-14T17:03:21.847Z,4.50
2022-10-14T17:08:27.470Z,5.83
2022-10-14T17:13:31.814Z,4.97
2022-10-14T17:18:36.050Z,5.37
2022-10-14T17:23:43.623Z,5.23
2022-10-14T17:28:47.272Z,4.80
2022-10-14T17:33:51.362Z,4.53
2022-10-14T17:38:55.427Z,5.27
2022-10-14T17:44:01.343Z,4.93
2022-10-14T17:49:10.067Z,5.00
2022-10-14T17:54:13.194Z,5.40
2022-10-14T17:59:15.921Z,5.17
2022-10-14T18:09:21.403Z,5.70
2022-10-14T18:14:25.196Z,5.70
2022-10-14T18:19:28.070Z,5.60
2022-10-14T18:24:30.905Z,5.70
2022-10-14T18:29:33.673Z,5.83
2022-10-14T18:34:36.580Z,6.00
2022-10-14T18:39:39.434Z,6.30
2022-10-14T18:44:42.142Z,8.57
2022-10-14T18:49:45.557Z,8.00
2022-10-14T18:54:48.636Z,6.90
2022-10-14T18:59:51.856Z,8.57
2022-10-14T19:04:56.182Z,9.43
2022-10-14T19:09:58.968Z,9.40
2022-10-14T19:15:01.655Z,9.33
2022-10-14T19:20:08.374Z,8.87
2022-10-14T19:25:11.562Z,8.90
2022-10-14T19:30:14.351Z,8.70
2022-10-14T19:40:23.680Z,8.77
2022-10-14T19:45:26.605Z,8.83
2022-10-14T19:50:29.297Z,7.97
2022-10-14T19:55:32.413Z,9.20
2022-10-14T20:00:35.990Z,8.13
2022-10-14T20:05:38.724Z,8.30
2022-10-14T20:10:44.655Z,8.70
2022-10-14T20:15:54.579Z,8.63
2022-10-14T20:20:57.455Z,8.93
2022-10-14T20:26:01.735Z,9.00
2022-10-14T20:31:07.690Z,8.53
2022-10-14T20:36:16.796Z,9.00
2022-10-14T20:41:22.319Z,8.67
2022-10-14T20:46:25.334Z,8.23
2022-10-14T20:51:28.318Z,8.43
2022-10-14T20:56:32.206Z,7.97
2022-10-14T21:01:36.556Z,8.37
2022-10-14T21:06:39.278Z,8.13
2022-10-14T21:11:43.246Z,9.00
2022-10-14T21:16:46.451Z,9.30
2022-10-14T21:21:51.829Z,9.47
2022-10-14T21:26:54.610Z,8.47
2022-10-14T21:31:57.357Z,9.00
2022-10-14T21:37:00.099Z,8.43
2022-10-14T21:42:02.813Z,9.53
2022-10-14T21:47:05.567Z,8.53
2022-10-14T21:52:08.318Z,8.23
2022-10-14T21:57:11.300Z,9.23
2022-10-14T22:02:14.067Z,8.67
2022-10-14T22:07:16.827Z,9.43
2022-10-14T22:12:20.193Z,9.73
2022-10-14T22:17:23.229Z,9.83
2022-10-14T22:22:26.142Z,9.80
2022-10-14T22:27:28.843Z,10.03
2022-10-14T22:32:31.556Z,10.53
2022-10-14T22:37:34.687Z,11.00
2022-10-14T22:42:40.534Z,10.80
2022-10-14T22:47:45.114Z,11.67
2022-10-14T22:52:47.828Z,11.43
2022-10-14T22:57:51.276Z,11.57
2022-10-14T23:02:54.178Z,10.93
2022-10-14T23:07:56.982Z,11.40
2022-10-14T23:12:59.860Z,11.73
2022-10-14T23:18:02.856Z,12.53
2022-10-14T23:23:05.594Z,12.47
2022-10-14T23:28:08.332Z,12.67
2022-10-14T23:33:11.928Z,11.67
2022-10-14T23:38:14.601Z,12.10
2022-10-14T23:43:19.357Z,11.33
2022-10-14T23:48:22.330Z,11.70
2022-10-14T23:53:28.383Z,12.20
2022-10-14T23:58:31.816Z,11.13
